Kaaawa, Hawaii
Current Conditions -  °F | °C
As of 3:57 PM on Friday 21 Nov 2014 (Local Time) from PHNG Reporting Station
Overcast Overcast  
Wind Chill: 80°   Ceiling: 5500
Heat Index: 83°   Visibility: 10mi
Dew Point: 69°   Wind: 13mph
Humidity: 69%   Direction: 70°ENE
Pressure: 29.98"   Gusts: 21mph
Location:  21.54°N, 157.84°W
Report Text: PHNG 220157Z 07011G18KT 10SM FEW023 OVC055 27/21 A2998 RMK AO2 RAB0059E13 SLP148 P0000 T02670206 $
Loading
Personal Weather Stations






























Interactive Weather Map New forecast layout! Learn more

10-Day Weather Forecast

Advertisements
Track Severe Weather on mobile